sensor_id;sensor_type;location;lat;lon;timestamp;pressure;altitude;pressure_sealevel;temperature;humidity
55456;BME280;63021;52.836;6.376;2023-04-20T00:02:17;102509.47;;;5.32;52.56
55456;BME280;63021;52.836;6.376;2023-04-20T00:04:46;102506.28;;;5.45;53.12
55456;BME280;63021;52.836;6.376;2023-04-20T00:07:11;102502.56;;;5.49;53.59
55456;BME280;63021;52.836;6.376;2023-04-20T00:09:37;102525.44;;;5.67;53.93
55456;BME280;63021;52.836;6.376;2023-04-20T00:12:03;102503.69;;;5.62;53.88
55456;BME280;63021;52.836;6.376;2023-04-20T00:14:29;102520.56;;;5.77;54.09
55456;BME280;63021;52.836;6.376;2023-04-20T00:16:54;102504.78;;;5.76;54.89
55456;BME280;63021;52.836;6.376;2023-04-20T00:19:25;102514.63;;;5.91;55.31
55456;BME280;63021;52.836;6.376;2023-04-20T00:21:52;102497.03;;;5.90;54.70
55456;BME280;63021;52.836;6.376;2023-04-20T00:24:18;102479.47;;;5.89;55.07
55456;BME280;63021;52.836;6.376;2023-04-20T00:26:43;102484.09;;;6.03;55.37
55456;BME280;63021;52.836;6.376;2023-04-20T00:29:09;102467.38;;;6.02;55.41
55456;BME280;63021;52.836;6.376;2023-04-20T00:31:35;102491.94;;;6.22;55.84
55456;BME280;63021;52.836;6.376;2023-04-20T00:34:00;102504.09;;;6.26;55.98
55456;BME280;63021;52.836;6.376;2023-04-20T00:36:26;102458.13;;;6.11;56.27
55456;BME280;63021;52.836;6.376;2023-04-20T00:38:54;102430.28;;;6.04;56.29
55456;BME280;63021;52.836;6.376;2023-04-20T00:41:20;102428.34;;;6.07;55.66
55456;BME280;63021;52.836;6.376;2023-04-20T00:43:51;102420.41;;;6.07;55.97
55456;BME280;63021;52.836;6.376;2023-04-20T00:46:17;102444.13;;;6.27;55.92
55456;BME280;63021;52.836;6.376;2023-04-20T00:48:43;102437.28;;;6.22;56.69
55456;BME280;63021;52.836;6.376;2023-04-20T00:51:08;102444.66;;;6.33;55.93
55456;BME280;63021;52.836;6.376;2023-04-20T00:53:35;102455.53;;;6.45;56.22
55456;BME280;63021;52.836;6.376;2023-04-20T00:56:01;102461.53;;;6.48;56.33
55456;BME280;63021;52.836;6.376;2023-04-20T00:58:29;102418.53;;;6.27;57.05
55456;BME280;63021;52.836;6.376;2023-04-20T01:00:55;102438.38;;;6.52;56.81
55456;BME280;63021;52.836;6.376;2023-04-20T01:03:21;102422.94;;;6.44;57.07
55456;BME280;63021;52.836;6.376;2023-04-20T01:05:47;102425.50;;;6.46;56.82
55456;BME280;63021;52.836;6.376;2023-04-20T01:08:12;102439.84;;;6.57;57.50
55456;BME280;63021;52.836;6.376;2023-04-20T01:10:38;102435.28;;;6.61;57.15
55456;BME280;63021;52.836;6.376;2023-04-20T01:13:03;102411.75;;;6.55;56.89
55456;BME280;63021;52.836;6.376;2023-04-20T01:15:29;102411.63;;;6.58;56.98
55456;BME280;63021;52.836;6.376;2023-04-20T01:17:55;102422.38;;;6.71;56.97
55456;BME280;63021;52.836;6.376;2023-04-20T01:20:22;102414.59;;;6.68;57.29
55456;BME280;63021;52.836;6.376;2023-04-20T01:22:50;102390.78;;;6.68;57.12
55456;BME280;63021;52.836;6.376;2023-04-20T01:25:18;102416.34;;;6.85;57.91
55456;BME280;63021;52.836;6.376;2023-04-20T01:27:47;102400.13;;;6.91;57.26
55456;BME280;63021;52.836;6.376;2023-04-20T01:30:13;102387.06;;;6.88;56.91
55456;BME280;63021;52.836;6.376;2023-04-20T01:32:39;102380.81;;;6.89;57.54
55456;BME280;63021;52.836;6.376;2023-04-20T01:35:05;102393.13;;;7.06;57.83
55456;BME280;63021;52.836;6.376;2023-04-20T01:37:33;102381.84;;;7.02;57.23
55456;BME280;63021;52.836;6.376;2023-04-20T01:39:59;102345.41;;;6.91;57.57
55456;BME280;63021;52.836;6.376;2023-04-20T01:42:25;102380.91;;;7.19;57.62
55456;BME280;63021;52.836;6.376;2023-04-20T01:44:50;102351.34;;;7.11;56.99
55456;BME280;63021;52.836;6.376;2023-04-20T01:47:18;102354.50;;;7.18;57.83
55456;BME280;63021;52.836;6.376;2023-04-20T01:49:44;102344.41;;;7.24;57.57
55456;BME280;63021;52.836;6.376;2023-04-20T01:52:10;102340.75;;;7.27;57.42
55456;BME280;63021;52.836;6.376;2023-04-20T01:54:35;102327.66;;;7.24;57.63
55456;BME280;63021;52.836;6.376;2023-04-20T01:57:01;102329.78;;;7.33;57.28
55456;BME280;63021;52.836;6.376;2023-04-20T01:59:27;102340.19;;;7.36;56.92
55456;BME280;63021;52.836;6.376;2023-04-20T02:01:53;102336.84;;;7.49;56.72
55456;BME280;63021;52.836;6.376;2023-04-20T02:04:23;102341.09;;;7.51;56.48
55456;BME280;63021;52.836;6.376;2023-04-20T02:06:49;102341.78;;;7.55;56.31
55456;BME280;63021;52.836;6.376;2023-04-20T02:09:17;102301.16;;;7.40;56.48
55456;BME280;63021;52.836;6.376;2023-04-20T02:11:53;102290.69;;;7.37;56.40
55456;BME280;63021;52.836;6.376;2023-04-20T02:14:19;102280.97;;;7.37;56.56
55456;BME280;63021;52.836;6.376;2023-04-20T02:16:45;102312.34;;;7.59;56.64
55456;BME280;63021;52.836;6.376;2023-04-20T02:19:10;102306.09;;;7.60;56.67
55456;BME280;63021;52.836;6.376;2023-04-20T02:21:36;102288.88;;;7.53;56.33
55456;BME280;63021;52.836;6.376;2023-04-20T02:24:05;102277.59;;;7.50;56.45
55456;BME280;63021;52.836;6.376;2023-04-20T02:26:31;102297.84;;;7.51;56.57
55456;BME280;63021;52.836;6.376;2023-04-20T02:28:56;102290.50;;;7.56;56.60
55456;BME280;63021;52.836;6.376;2023-04-20T02:31:22;102284.00;;;7.45;57.28
55456;BME280;63021;52.836;6.376;2023-04-20T02:33:50;102279.66;;;7.44;57.08
55456;BME280;63021;52.836;6.376;2023-04-20T02:36:16;102274.28;;;7.46;57.65
55456;BME280;63021;52.836;6.376;2023-04-20T02:38:42;102276.94;;;7.46;57.89
55456;BME280;63021;52.836;6.376;2023-04-20T02:41:10;102290.50;;;7.56;57.85
55456;BME280;63021;52.836;6.376;2023-04-20T02:43:41;102258.75;;;7.40;58.29
55456;BME280;63021;52.836;6.376;2023-04-20T02:46:07;102239.63;;;7.35;58.54
55456;BME280;63021;52.836;6.376;2023-04-20T02:48:32;102283.09;;;7.61;58.22
55456;BME280;63021;52.836;6.376;2023-04-20T02:50:58;102272.03;;;7.54;58.83
55456;BME280;63021;52.836;6.376;2023-04-20T02:53:23;102269.00;;;7.60;58.38
55456;BME280;63021;52.836;6.376;2023-04-20T02:55:49;102267.19;;;7.61;58.27
55456;BME280;63021;52.836;6.376;2023-04-20T02:58:14;102278.38;;;7.66;58.40
55456;BME280;63021;52.836;6.376;2023-04-20T03:00:41;102256.97;;;7.55;58.50
55456;BME280;63021;52.836;6.376;2023-04-20T03:03:08;102267.28;;;7.59;58.96
55456;BME280;63021;52.836;6.376;2023-04-20T03:05:34;102279.13;;;7.68;58.41
55456;BME280;63021;52.836;6.376;2023-04-20T03:08:01;102249.03;;;7.55;59.18
55456;BME280;63021;52.836;6.376;2023-04-20T03:10:31;102257.81;;;7.55;58.50
55456;BME280;63021;52.836;6.376;2023-04-20T03:12:57;102240.13;;;7.56;59.07
55456;BME280;63021;52.836;6.376;2023-04-20T03:15:23;102263.91;;;7.72;58.49
55456;BME280;63021;52.836;6.376;2023-04-20T03:17:49;102239.06;;;7.58;58.42
55456;BME280;63021;52.836;6.376;2023-04-20T03:20:17;102270.81;;;7.74;58.93
55456;BME280;63021;52.836;6.376;2023-04-20T03:22:47;102235.38;;;7.61;58.86
55456;BME280;63021;52.836;6.376;2023-04-20T03:25:12;102231.81;;;7.62;57.92
55456;BME280;63021;52.836;6.376;2023-04-20T03:27:44;102254.72;;;7.77;58.32
55456;BME280;63021;52.836;6.376;2023-04-20T03:30:10;102231.22;;;7.71;57.85
55456;BME280;63021;52.836;6.376;2023-04-20T03:32:36;102210.88;;;7.57;57.84
55456;BME280;63021;52.836;6.376;2023-04-20T03:35:03;102251.88;;;7.80;57.23
55456;BME280;63021;52.836;6.376;2023-04-20T03:37:30;102243.00;;;7.67;56.72
55456;BME280;63021;52.836;6.376;2023-04-20T03:39:55;102247.03;;;7.73;56.18
55456;BME280;63021;52.836;6.376;2023-04-20T03:42:21;102232.84;;;7.74;55.32
55456;BME280;63021;52.836;6.376;2023-04-20T03:44:46;102219.88;;;7.69;54.99
55456;BME280;63021;52.836;6.376;2023-04-20T03:47:11;102205.09;;;7.65;54.98
55456;BME280;63021;52.836;6.376;2023-04-20T03:49:37;102235.78;;;7.84;54.15
55456;BME280;63021;52.836;6.376;2023-04-20T03:52:03;102225.28;;;7.82;53.91
55456;BME280;63021;52.836;6.376;2023-04-20T03:54:29;102243.34;;;7.90;53.73
55456;BME280;63021;52.836;6.376;2023-04-20T03:56:54;102241.47;;;7.92;53.51
55456;BME280;63021;52.836;6.376;2023-04-20T03:59:20;102228.69;;;7.84;53.00
55456;BME280;63021;52.836;6.376;2023-04-20T04:01:46;102220.81;;;7.83;53.05
55456;BME280;63021;52.836;6.376;2023-04-20T04:04:11;102236.91;;;7.94;52.85
55456;BME280;63021;52.836;6.376;2023-04-20T04:06:36;102224.88;;;7.88;52.53
55456;BME280;63021;52.836;6.376;2023-04-20T04:09:02;102230.97;;;7.90;52.03
55456;BME280;63021;52.836;6.376;2023-04-20T04:11:27;102244.78;;;7.95;52.93
55456;BME280;63021;52.836;6.376;2023-04-20T04:13:56;102244.69;;;7.97;52.70
55456;BME280;63021;52.836;6.376;2023-04-20T04:16:21;102226.91;;;7.85;52.41
55456;BME280;63021;52.836;6.376;2023-04-20T04:18:49;102234.06;;;7.97;52.07
55456;BME280;63021;52.836;6.376;2023-04-20T04:21:15;102229.06;;;7.92;52.31
55456;BME280;63021;52.836;6.376;2023-04-20T04:23:40;102229.06;;;7.92;52.31
55456;BME280;63021;52.836;6.376;2023-04-20T04:26:07;102214.75;;;7.95;52.29
55456;BME280;63021;52.836;6.376;2023-04-20T04:28:33;102217.72;;;7.90;53.47
55456;BME280;63021;52.836;6.376;2023-04-20T04:30:58;102183.16;;;7.63;53.96
55456;BME280;63021;52.836;6.376;2023-04-20T04:33:31;102228.22;;;7.77;54.15
55456;BME280;63021;52.836;6.376;2023-04-20T04:35:58;102203.78;;;7.58;54.44
55456;BME280;63021;52.836;6.376;2023-04-20T04:38:27;102213.34;;;7.60;55.09
55456;BME280;63021;52.836;6.376;2023-04-20T04:40:52;102219.28;;;7.64;55.03
55456;BME280;63021;52.836;6.376;2023-04-20T04:43:19;102202.44;;;7.51;56.23
55456;BME280;63021;52.836;6.376;2023-04-20T04:45:45;102204.91;;;7.39;55.99
55456;BME280;63021;52.836;6.376;2023-04-20T04:48:22;102204.34;;;7.34;56.45
55456;BME280;63021;52.836;6.376;2023-04-20T04:50:50;102219.56;;;7.45;56.70
55456;BME280;63021;52.836;6.376;2023-04-20T04:53:19;102193.72;;;7.20;57.61
55456;BME280;63021;52.836;6.376;2023-04-20T04:55:54;102213.59;;;7.27;58.14
55456;BME280;63021;52.836;6.376;2023-04-20T04:58:25;102236.13;;;7.34;58.30
55456;BME280;63021;52.836;6.376;2023-04-20T05:00:53;102221.69;;;7.24;58.61
55456;BME280;63021;52.836;6.376;2023-04-20T05:03:19;102228.06;;;7.21;58.27
55456;BME280;63021;52.836;6.376;2023-04-20T05:05:44;102191.09;;;7.04;58.49
55456;BME280;63021;52.836;6.376;2023-04-20T05:08:10;102233.06;;;7.26;58.90
55456;BME280;63021;52.836;6.376;2023-04-20T05:10:40;102241.13;;;7.24;59.17
55456;BME280;63021;52.836;6.376;2023-04-20T05:13:06;102226.22;;;7.07;59.38
55456;BME280;63021;52.836;6.376;2023-04-20T05:15:35;102219.97;;;7.08;59.13
55456;BME280;63021;52.836;6.376;2023-04-20T05:18:03;102203.69;;;7.00;59.24
55456;BME280;63021;52.836;6.376;2023-04-20T05:20:29;102218.09;;;7.10;59.46
55456;BME280;63021;52.836;6.376;2023-04-20T05:22:54;102178.97;;;6.85;59.36
55456;BME280;63021;52.836;6.376;2023-04-20T05:25:23;102195.44;;;6.90;59.63
55456;BME280;63021;52.836;6.376;2023-04-20T05:27:48;102217.16;;;7.11;59.53
55456;BME280;63021;52.836;6.376;2023-04-20T05:30:17;102213.44;;;7.00;59.56
55456;BME280;63021;52.836;6.376;2023-04-20T05:32:46;102220.81;;;7.09;60.18
55456;BME280;63021;52.836;6.376;2023-04-20T05:35:12;102220.91;;;7.07;59.86
55456;BME280;63021;52.836;6.376;2023-04-20T05:37:43;102227.16;;;7.06;59.63
55456;BME280;63021;52.836;6.376;2023-04-20T05:40:09;102217.03;;;6.99;59.73
55456;BME280;63021;52.836;6.376;2023-04-20T05:42:38;102211.13;;;6.93;59.93
55456;BME280;63021;52.836;6.376;2023-04-20T05:45:11;102237.03;;;7.19;60.33
55456;BME280;63021;52.836;6.376;2023-04-20T05:47:37;102236.53;;;7.12;60.29
55456;BME280;63021;52.836;6.376;2023-04-20T05:50:03;102239.69;;;7.19;60.21
55456;BME280;63021;52.836;6.376;2023-04-20T05:52:57;102248.56;;;7.18;59.94
55456;BME280;63021;52.836;6.376;2023-04-20T05:55:25;102219.47;;;7.02;60.10
55456;BME280;63021;52.836;6.376;2023-04-20T05:57:56;102245.03;;;7.03;59.90
55456;BME280;63021;52.836;6.376;2023-04-20T06:00:22;102246.09;;;7.15;60.94
55456;BME280;63021;52.836;6.376;2023-04-20T06:02:56;102240.13;;;7.11;60.92
55456;BME280;63021;52.836;6.376;2023-04-20T06:05:25;102252.69;;;7.07;60.22
55456;BME280;63021;52.836;6.376;2023-04-20T06:07:50;102216.09;;;6.84;60.17
55456;BME280;63021;52.836;6.376;2023-04-20T06:10:18;102239.41;;;6.93;60.43
55456;BME280;63021;52.836;6.376;2023-04-20T06:12:44;102236.34;;;6.85;60.42
55456;BME280;63021;52.836;6.376;2023-04-20T06:15:11;102198.66;;;6.65;60.94
55456;BME280;63021;52.836;6.376;2023-04-20T06:17:45;102207.34;;;6.67;60.42
55456;BME280;63021;52.836;6.376;2023-04-20T06:20:21;102243.84;;;6.92;60.81
55456;BME280;63021;52.836;6.376;2023-04-20T06:22:57;102239.06;;;6.83;61.10
55456;BME280;63021;52.836;6.376;2023-04-20T06:25:23;102266.06;;;6.90;60.71
55456;BME280;63021;52.836;6.376;2023-04-20T06:27:52;102238.84;;;6.72;61.73
55456;BME280;63021;52.836;6.376;2023-04-20T06:30:17;102255.97;;;6.81;61.89
55456;BME280;63021;52.836;6.376;2023-04-20T06:33:03;102257.88;;;6.79;61.71
55456;BME280;63021;52.836;6.376;2023-04-20T06:35:29;102257.97;;;6.77;62.09
55456;BME280;63021;52.836;6.376;2023-04-20T06:38:10;102231.81;;;6.71;62.37
55456;BME280;63021;52.836;6.376;2023-04-20T06:40:36;102235.53;;;6.68;62.19
55456;BME280;63021;52.836;6.376;2023-04-20T06:43:01;102243.13;;;6.58;63.40
55456;BME280;63021;52.836;6.376;2023-04-20T06:45:27;102224.25;;;6.49;63.64
55456;BME280;63021;52.836;6.376;2023-04-20T06:47:55;102225.38;;;6.45;63.13
55456;BME280;63021;52.836;6.376;2023-04-20T06:50:21;102269.84;;;6.70;63.82
55456;BME280;63021;52.836;6.376;2023-04-20T06:52:46;102262.84;;;6.69;63.56
55456;BME280;63021;52.836;6.376;2023-04-20T06:55:16;102225.38;;;6.45;64.00
55456;BME280;63021;52.836;6.376;2023-04-20T06:57:41;102248.78;;;6.52;64.35
55456;BME280;63021;52.836;6.376;2023-04-20T07:00:16;102237.22;;;6.37;64.03
55456;BME280;63021;52.836;6.376;2023-04-20T07:02:46;102254.81;;;6.38;64.19
55456;BME280;63021;52.836;6.376;2023-04-20T07:05:13;102250.91;;;6.30;64.28
55456;BME280;63021;52.836;6.376;2023-04-20T07:07:39;102245.25;;;6.20;64.69
55456;BME280;63021;52.836;6.376;2023-04-20T07:10:08;102258.75;;;6.31;64.92
55456;BME280;63021;52.836;6.376;2023-04-20T07:12:35;102245.44;;;6.17;65.31
55456;BME280;63021;52.836;6.376;2023-04-20T07:15:04;102238.41;;;6.16;65.39
55456;BME280;63021;52.836;6.376;2023-04-20T07:17:31;102233.31;;;6.13;65.45
55456;BME280;63021;52.836;6.376;2023-04-20T07:19:57;102207.84;;;5.94;65.53
55456;BME280;63021;52.836;6.376;2023-04-20T07:22:24;102254.97;;;6.03;66.30
55456;BME280;63021;52.836;6.376;2023-04-20T07:24:50;102240.03;;;6.02;66.67
55456;BME280;63021;52.836;6.376;2023-04-20T07:27:18;102221.97;;;5.93;66.94
55456;BME280;63021;52.836;6.376;2023-04-20T07:29:44;102223.47;;;5.99;66.82
55456;BME280;63021;52.836;6.376;2023-04-20T07:32:09;102222.16;;;5.90;66.68
55456;BME280;63021;52.836;6.376;2023-04-20T07:34:40;102198.69;;;5.84;67.25
55456;BME280;63021;52.836;6.376;2023-04-20T07:37:13;102210.66;;;5.91;67.04
55456;BME280;63021;52.836;6.376;2023-04-20T07:39:39;102218.50;;;5.93;67.67
55456;BME280;63021;52.836;6.376;2023-04-20T07:42:05;102225.38;;;5.79;67.43
55456;BME280;63021;52.836;6.376;2023-04-20T07:44:30;102192.03;;;5.77;67.53
55456;BME280;63021;52.836;6.376;2023-04-20T07:46:58;102223.16;;;5.87;68.14
55456;BME280;63021;52.836;6.376;2023-04-20T07:49:24;102216.03;;;5.89;67.79
55456;BME280;63021;52.836;6.376;2023-04-20T07:51:51;102213.84;;;5.98;68.52
55456;BME280;63021;52.836;6.376;2023-04-20T07:54:25;102202.53;;;5.94;68.32
55456;BME280;63021;52.836;6.376;2023-04-20T07:56:54;102233.31;;;6.13;68.31
55456;BME280;63021;52.836;6.376;2023-04-20T07:59:20;102240.88;;;6.19;68.77
55456;BME280;63021;52.836;6.376;2023-04-20T08:01:46;102238.78;;;6.26;68.96
55456;BME280;63021;52.836;6.376;2023-04-20T08:04:11;102245.16;;;6.37;68.60
55456;BME280;63021;52.836;6.376;2023-04-20T08:06:37;102218.81;;;6.36;69.04
55456;BME280;63021;52.836;6.376;2023-04-20T08:09:03;102204.22;;;6.29;69.15
55456;BME280;63021;52.836;6.376;2023-04-20T08:11:32;102193.56;;;6.30;69.40
55456;BME280;63021;52.836;6.376;2023-04-20T08:13:58;102206.94;;;6.43;68.68
55456;BME280;63021;52.836;6.376;2023-04-20T08:16:24;102192.09;;;6.40;69.38
55456;BME280;63021;52.836;6.376;2023-04-20T08:18:49;102211.47;;;6.57;68.70
55456;BME280;63021;52.836;6.376;2023-04-20T08:21:15;102225.50;;;6.73;68.71
55456;BME280;63021;52.836;6.376;2023-04-20T08:23:41;102216.47;;;6.78;68.45
55456;BME280;63021;52.836;6.376;2023-04-20T08:26:06;102217.75;;;6.70;68.98
55456;BME280;63021;52.836;6.376;2023-04-20T08:28:37;102204.75;;;6.82;68.99
55456;BME280;63021;52.836;6.376;2023-04-20T08:31:02;102208.00;;;6.87;69.07
55456;BME280;63021;52.836;6.376;2023-04-20T08:33:28;102201.31;;;6.96;68.55
55456;BME280;63021;52.836;6.376;2023-04-20T08:35:54;102167.50;;;6.85;68.77
55456;BME280;63021;52.836;6.376;2023-04-20T08:38:21;102172.63;;;6.88;68.77
55456;BME280;63021;52.836;6.376;2023-04-20T08:40:51;102200.38;;;7.11;68.89
55456;BME280;63021;52.836;6.376;2023-04-20T08:43:17;102200.00;;;7.03;68.10
55456;BME280;63021;52.836;6.376;2023-04-20T08:45:47;102194.81;;;7.01;68.80
55456;BME280;63021;52.836;6.376;2023-04-20T08:48:15;102204.56;;;7.15;68.58
55456;BME280;63021;52.836;6.376;2023-04-20T08:50:41;102206.16;;;7.03;68.65
55456;BME280;63021;52.836;6.376;2023-04-20T08:53:07;102188.25;;;6.92;68.69
55456;BME280;63021;52.836;6.376;2023-04-20T08:55:33;102227.38;;;7.18;68.38
55456;BME280;63021;52.836;6.376;2023-04-20T08:57:59;102204.94;;;7.09;68.76
55456;BME280;63021;52.836;6.376;2023-04-20T09:00:24;102188.56;;;7.02;68.18
55456;BME280;63021;52.836;6.376;2023-04-20T09:02:51;102212.50;;;7.15;68.34
55456;BME280;63021;52.836;6.376;2023-04-20T09:05:28;102207.22;;;7.15;68.51
55456;BME280;63021;52.836;6.376;2023-04-20T09:07:55;102197.84;;;7.09;68.19
55456;BME280;63021;52.836;6.376;2023-04-20T09:10:22;102179.56;;;7.05;68.38
55456;BME280;63021;52.836;6.376;2023-04-20T09:12:49;102213.97;;;7.35;68.37
55456;BME280;63021;52.836;6.376;2023-04-20T09:15:29;102201.69;;;7.34;68.60
55456;BME280;63021;52.836;6.376;2023-04-20T09:17:55;102218.34;;;7.51;68.25
55456;BME280;63021;52.836;6.376;2023-04-20T09:20:33;102207.00;;;7.49;68.99
55456;BME280;63021;52.836;6.376;2023-04-20T09:23:18;102208.25;;;7.57;68.55
55456;BME280;63021;52.836;6.376;2023-04-20T09:25:50;102220.06;;;7.66;68.12
55456;BME280;63021;52.836;6.376;2023-04-20T09:28:17;102179.34;;;7.53;68.88
55456;BME280;63021;52.836;6.376;2023-04-20T09:30:45;102203.28;;;7.80;68.10
55456;BME280;63021;52.836;6.376;2023-04-20T09:33:11;102207.38;;;7.86;68.10
55456;BME280;63021;52.836;6.376;2023-04-20T09:35:39;102207.94;;;7.91;68.45
55456;BME280;63021;52.836;6.376;2023-04-20T09:38:07;102191.34;;;7.87;67.98
55456;BME280;63021;52.836;6.376;2023-04-20T09:40:33;102204.63;;;7.87;68.38
55456;BME280;63021;52.836;6.376;2023-04-20T09:43:08;102180.84;;;7.86;68.15
55456;BME280;63021;52.836;6.376;2023-04-20T09:45:37;102188.25;;;7.95;67.97
55456;BME280;63021;52.836;6.376;2023-04-20T09:48:07;102212.72;;;8.13;68.05
55456;BME280;63021;52.836;6.376;2023-04-20T09:50:44;102202.78;;;8.17;67.96
55456;BME280;63021;52.836;6.376;2023-04-20T09:53:28;102205.44;;;8.17;67.33
55456;BME280;63021;52.836;6.376;2023-04-20T09:55:55;102174.38;;;8.04;67.48
55456;BME280;63021;52.836;6.376;2023-04-20T09:58:22;102181.69;;;8.15;67.41
55456;BME280;63021;52.836;6.376;2023-04-20T10:00:59;102159.44;;;8.03;68.02
55456;BME280;63021;52.836;6.376;2023-04-20T10:03:27;102186.56;;;8.21;68.02
55456;BME280;63021;52.836;6.376;2023-04-20T10:05:53;102171.69;;;8.19;67.73
55456;BME280;63021;52.836;6.376;2023-04-20T10:08:39;102180.69;;;8.30;67.72
55456;BME280;63021;52.836;6.376;2023-04-20T10:11:05;102194.41;;;8.37;66.88
55456;BME280;63021;52.836;6.376;2023-04-20T10:13:32;102180.78;;;8.29;66.94
55456;BME280;63021;52.836;6.376;2023-04-20T10:16:00;102167.53;;;8.29;67.55
55456;BME280;63021;52.836;6.376;2023-04-20T10:18:26;102169.09;;;8.31;67.44
55456;BME280;63021;52.836;6.376;2023-04-20T10:21:29;102192.69;;;8.51;67.58
55456;BME280;63021;52.836;6.376;2023-04-20T10:24:09;102181.59;;;8.44;67.04
55456;BME280;63021;52.836;6.376;2023-04-20T10:26:39;102167.75;;;8.39;67.08
55456;BME280;63021;52.836;6.376;2023-04-20T10:29:21;102194.63;;;8.61;67.24
55456;BME280;63021;52.836;6.376;2023-04-20T10:31:50;102177.19;;;8.57;67.03
55456;BME280;63021;52.836;6.376;2023-04-20T10:34:36;102189.69;;;8.70;67.09
55456;BME280;63021;52.836;6.376;2023-04-20T10:37:14;102184.94;;;8.88;67.95
55456;BME280;63021;52.836;6.376;2023-04-20T10:39:46;102159.47;;;8.98;67.45
55456;BME280;63021;52.836;6.376;2023-04-20T10:42:15;102181.81;;;9.34;67.54
55456;BME280;63021;52.836;6.376;2023-04-20T10:44:53;102166.38;;;9.39;66.99
55456;BME280;63021;52.836;6.376;2023-04-20T10:47:40;102145.56;;;9.46;67.16
55456;BME280;63021;52.836;6.376;2023-04-20T10:50:07;102182.84;;;9.83;66.87
55456;BME280;63021;52.836;6.376;2023-04-20T10:52:40;102184.09;;;10.03;66.31
55456;BME280;63021;52.836;6.376;2023-04-20T10:55:19;102148.97;;;9.98;65.49
55456;BME280;63021;52.836;6.376;2023-04-20T10:57:45;102134.25;;;10.05;65.35
55456;BME280;63021;52.836;6.376;2023-04-20T11:00:19;102149.22;;;10.19;64.00
55456;BME280;63021;52.836;6.376;2023-04-20T11:02:50;102161.34;;;10.23;64.14
55456;BME280;63021;52.836;6.376;2023-04-20T11:05:25;102150.97;;;10.07;63.56
55456;BME280;63021;52.836;6.376;2023-04-20T11:07:58;102152.75;;;10.06;63.24
55456;BME280;63021;52.836;6.376;2023-04-20T11:10:40;102144.31;;;9.88;63.35
55456;BME280;63021;52.836;6.376;2023-04-20T11:13:06;102116.28;;;9.71;63.21
55456;BME280;63021;52.836;6.376;2023-04-20T11:15:43;102135.47;;;9.88;63.74
55456;BME280;63021;52.836;6.376;2023-04-20T11:18:17;102102.38;;;9.92;64.32
55456;BME280;63021;52.836;6.376;2023-04-20T11:20:54;102146.81;;;10.40;64.47
55456;BME280;63021;52.836;6.376;2023-04-20T11:23:21;102123.00;;;10.50;62.85
55456;BME280;63021;52.836;6.376;2023-04-20T11:25:56;102109.38;;;10.54;62.66
55456;BME280;63021;52.836;6.376;2023-04-20T11:28:22;102114.47;;;10.57;61.95
55456;BME280;63021;52.836;6.376;2023-04-20T11:30:50;102122.56;;;10.56;62.11
55456;BME280;63021;52.836;6.376;2023-04-20T11:33:32;102133.81;;;10.60;60.61
55456;BME280;63021;52.836;6.376;2023-04-20T11:35:59;102132.31;;;10.44;61.01
55456;BME280;63021;52.836;6.376;2023-04-20T11:38:31;102112.25;;;10.27;61.53
55456;BME280;63021;52.836;6.376;2023-04-20T11:40:57;102113.66;;;10.20;61.85
55456;BME280;63021;52.836;6.376;2023-04-20T11:43:30;102125.31;;;10.43;61.22
55456;BME280;63021;52.836;6.376;2023-04-20T11:45:56;102100.09;;;10.36;61.83
55456;BME280;63021;52.836;6.376;2023-04-20T11:48:22;102080.47;;;10.37;61.90
55456;BME280;63021;52.836;6.376;2023-04-20T11:50:48;102115.75;;;10.76;61.99
55456;BME280;63021;52.836;6.376;2023-04-20T11:53:13;102108.81;;;10.73;61.15
55456;BME280;63021;52.836;6.376;2023-04-20T11:55:40;102097.56;;;10.81;60.65
55456;BME280;63021;52.836;6.376;2023-04-20T11:58:06;102078.94;;;10.81;60.90
55456;BME280;63021;52.836;6.376;2023-04-20T12:00:32;102113.38;;;11.18;60.90
55456;BME280;63021;52.836;6.376;2023-04-20T12:03:01;102060.91;;;11.19;60.16
55456;BME280;63021;52.836;6.376;2023-04-20T12:05:29;102088.19;;;11.45;59.85
55456;BME280;63021;52.836;6.376;2023-04-20T12:07:57;102098.09;;;11.54;58.53
55456;BME280;63021;52.836;6.376;2023-04-20T12:10:23;102105.41;;;11.52;58.79
55456;BME280;63021;52.836;6.376;2023-04-20T12:12:49;102101.16;;;11.50;58.26
55456;BME280;63021;52.836;6.376;2023-04-20T12:15:16;102086.50;;;11.44;58.64
55456;BME280;63021;52.836;6.376;2023-04-20T12:17:41;102107.69;;;11.57;58.67
55456;BME280;63021;52.836;6.376;2023-04-20T12:20:14;102075.31;;;11.50;58.44
55456;BME280;63021;52.836;6.376;2023-04-20T12:22:47;102075.41;;;11.71;57.84
55456;BME280;63021;52.836;6.376;2023-04-20T12:25:13;102075.66;;;11.79;57.36
55456;BME280;63021;52.836;6.376;2023-04-20T12:27:41;102099.50;;;12.04;57.94
55456;BME280;63021;52.836;6.376;2023-04-20T12:30:09;102055.97;;;11.92;57.63
55456;BME280;63021;52.836;6.376;2023-04-20T12:32:40;102074.16;;;11.98;56.72
55456;BME280;63021;52.836;6.376;2023-04-20T12:35:10;102075.16;;;11.97;56.25
55456;BME280;63021;52.836;6.376;2023-04-20T12:37:41;102069.19;;;11.82;56.15
55456;BME280;63021;52.836;6.376;2023-04-20T12:40:09;102101.84;;;11.97;56.34
55456;BME280;63021;52.836;6.376;2023-04-20T12:42:37;102062.66;;;11.75;56.47
55456;BME280;63021;52.836;6.376;2023-04-20T12:45:04;102084.00;;;11.86;56.17
55456;BME280;63021;52.836;6.376;2023-04-20T12:47:36;102086.41;;;11.89;56.94
55456;BME280;63021;52.836;6.376;2023-04-20T12:50:06;102104.13;;;12.02;55.99
55456;BME280;63021;52.836;6.376;2023-04-20T12:52:43;102076.50;;;11.80;55.86
55456;BME280;63021;52.836;6.376;2023-04-20T12:55:09;102126.31;;;11.91;56.08
55456;BME280;63021;52.836;6.376;2023-04-20T12:57:38;102078.94;;;11.72;55.82
55456;BME280;63021;52.836;6.376;2023-04-20T13:00:13;102113.47;;;11.85;56.51
55456;BME280;63021;52.836;6.376;2023-04-20T13:02:45;102102.69;;;11.75;56.31
55456;BME280;63021;52.836;6.376;2023-04-20T13:05:11;102085.22;;;11.71;56.43